Time;durP1;ratioP1;P1;durP2;ratioP2;P2;SDS_P1;SDS_P2;PMS_P1;PMS_P2;Temp;Humidity;BMP_temperature;BMP_pressure;BME280_temperature;BME280_humidity;BME280_pressure;Samples;Min_cycle;Max_cycle;Signal;HPM_P1;HPM_P2
2022/06/19 00:01:22;;;;;;;5.07;3.00;;;;;;;19.85;100.00;96156.88;5030530;28;103811;-65
2022/06/19 00:03:54;;;;;;;5.73;3.07;;;;;;;19.38;100.00;96153.06;5031745;28;102855;-65
2022/06/19 00:06:22;;;;;;;4.90;3.07;;;;;;;19.23;100.00;96150.00;5032401;27;102149;-65
2022/06/19 00:08:49;;;;;;;7.97;2.87;;;;;;;19.72;100.00;96141.63;5034980;28;102515;-65
2022/06/19 00:11:18;;;;;;;5.87;2.80;;;;;;;19.87;100.00;96144.66;5032292;27;102070;-65
2022/06/19 00:13:47;;;;;;;7.20;2.80;;;;;;;19.76;100.00;96137.16;5030801;28;104037;-65
2022/06/19 00:16:48;;;;;;;4.63;2.57;;;;;;;19.73;100.00;96132.41;5029973;28;105377;-65
2022/06/19 00:19:16;;;;;;;9.50;3.30;;;;;;;19.65;100.00;96127.75;5032431;28;101770;-65
2022/06/19 00:21:44;;;;;;;6.67;3.13;;;;;;;19.56;100.00;96129.66;5031974;27;102400;-65
2022/06/19 00:24:11;;;;;;;4.83;3.00;;;;;;;19.63;100.00;96130.78;5030035;28;105440;-65
2022/06/19 00:26:46;;;;;;;3.10;2.80;;;;;;;19.62;100.00;96131.09;5031889;28;101989;-65
2022/06/19 00:29:14;;;;;;;4.67;3.20;;;;;;;19.46;100.00;96135.34;5030818;28;105266;-65
2022/06/19 00:31:42;;;;;;;4.77;3.00;;;;;;;18.95;100.00;96143.13;5034790;28;102555;-65
2022/06/19 00:34:09;;;;;;;8.60;3.60;;;;;;;19.00;100.00;96143.00;5031970;28;102696;-65
2022/06/19 00:36:49;;;;;;;7.07;3.43;;;;;;;19.28;100.00;96123.69;5031224;28;102716;-65
2022/06/19 00:39:17;;;;;;;4.43;2.90;;;;;;;19.38;100.00;96123.41;5031991;27;101722;-65
2022/06/19 00:41:44;;;;;;;5.63;2.80;;;;;;;19.07;100.00;96116.44;5030484;28;104396;-65
2022/06/19 00:44:15;;;;;;;4.17;3.17;;;;;;;19.14;100.00;96114.06;5031155;27;102633;-65
2022/06/19 00:46:51;;;;;;;6.80;3.37;;;;;;;19.22;100.00;96111.44;5031927;28;101746;-65
2022/06/19 00:49:36;;;;;;;3.10;2.47;;;;;;;18.96;100.00;96107.03;5031954;28;102609;-65
2022/06/19 00:52:07;;;;;;;5.93;3.07;;;;;;;18.55;100.00;96093.78;5034609;27;102488;-65
2022/06/19 00:54:38;;;;;;;5.23;2.90;;;;;;;18.27;100.00;96083.41;5031792;28;101750;-65
2022/06/19 00:57:08;;;;;;;5.50;3.00;;;;;;;18.23;100.00;96082.44;5029697;28;104289;-65
2022/06/19 00:59:38;;;;;;;4.13;2.93;;;;;;;18.26;100.00;96073.75;5030302;28;101977;-65
2022/06/19 01:02:08;;;;;;;3.30;2.73;;;;;;;18.43;100.00;96072.00;5030778;28;104328;-65
2022/06/19 01:04:50;;;;;;;4.93;2.73;;;;;;;18.40;100.00;96061.84;5030868;28;102901;-65
2022/06/19 01:07:18;;;;;;;5.10;2.70;;;;;;;18.48;100.00;96063.78;5031683;28;101694;-65
2022/06/19 01:09:45;;;;;;;6.07;3.17;;;;;;;18.50;100.00;96058.91;5031343;28;103992;-65
2022/06/19 01:12:13;;;;;;;5.03;3.00;;;;;;;18.35;100.00;96064.66;5028849;27;105647;-65
2022/06/19 01:15:27;;;;;;;5.40;2.67;;;;;;;18.64;100.00;96062.31;5034754;28;101822;-65
2022/06/19 01:18:01;;;;;;;4.73;2.50;;;;;;;18.90;100.00;96044.38;5030249;27;102696;-65
2022/06/19 01:20:29;;;;;;;10.77;2.80;;;;;;;18.72;100.00;96031.94;5029773;28;101885;-65
2022/06/19 01:23:06;;;;;;;4.60;2.53;;;;;;;18.39;100.00;96027.16;5031309;28;102010;-65
2022/06/19 01:26:25;;;;;;;5.03;3.17;;;;;;;18.44;100.00;96021.63;5030718;28;102592;-65
2022/06/19 01:28:56;;;;;;;5.03;2.80;;;;;;;18.44;100.00;96021.63;5029875;28;101926;-65
2022/06/19 01:31:30;;;;;;;7.40;3.10;;;;;;;18.32;100.00;96024.09;5031316;27;102273;-65
2022/06/19 01:34:00;;;;;;;5.37;2.70;;;;;;;18.47;100.00;96015.66;5030591;28;102533;-65
2022/06/19 01:36:30;;;;;;;5.17;2.50;;;;;;;18.59;100.00;96018.56;5031164;28;101801;-65
2022/06/19 01:38:59;;;;;;;6.67;3.20;;;;;;;18.52;100.00;96007.44;5032427;28;104309;-65
2022/06/19 01:41:30;;;;;;;7.07;2.63;;;;;;;18.52;100.00;95999.38;5030972;28;101844;-65
2022/06/19 01:43:59;;;;;;;5.10;2.50;;;;;;;18.64;100.00;95992.28;5031041;28;102555;-65
2022/06/19 01:47:00;;;;;;;5.63;2.40;;;;;;;18.64;100.00;95986.09;5030205;28;102775;-65
2022/06/19 01:52:54;;;;;;;5.03;2.50;;;;;;;19.05;100.00;95976.59;5030726;27;102830;-65
2022/06/19 01:55:28;;;;;;;4.60;2.50;;;;;;;18.87;100.00;95985.72;5030299;28;102767;-65
2022/06/19 01:57:58;;;;;;;4.67;2.67;;;;;;;19.06;100.00;95986.25;5030837;27;101758;-65
2022/06/19 02:00:31;;;;;;;6.77;2.63;;;;;;;18.67;100.00;95980.88;5029571;28;105810;-65
2022/06/19 02:03:05;;;;;;;7.93;2.90;;;;;;;18.41;100.00;95993.44;5033137;27;102520;-65
2022/06/19 02:06:04;;;;;;;4.73;2.53;;;;;;;18.47;100.00;95991.41;5030652;28;102406;-65
2022/06/19 02:08:35;;;;;;;6.20;2.83;;;;;;;18.47;100.00;95976.03;5028680;28;104000;-65
2022/06/19 02:11:05;;;;;;;5.77;2.93;;;;;;;18.51;100.00;95973.53;5029372;28;101776;-65
2022/06/19 02:13:34;;;;;;;7.23;2.93;;;;;;;18.38;100.00;95977.91;5030558;27;102611;-65
2022/06/19 02:16:07;;;;;;;5.63;2.90;;;;;;;18.15;100.00;95979.00;5029817;28;103242;-65
2022/06/19 02:18:48;;;;;;;6.30;3.50;;;;;;;18.24;100.00;95981.72;5030602;28;101964;-65
2022/06/19 02:21:19;;;;;;;5.50;3.33;;;;;;;18.21;100.00;95976.97;5029130;28;105444;-65
2022/06/19 02:23:47;;;;;;;3.20;2.40;;;;;;;18.44;100.00;95973.19;5029690;27;104335;-65
2022/06/19 02:27:02;;;;;;;4.77;2.83;;;;;;;18.28;100.00;95962.00;5036062;28;101976;-65
2022/06/19 02:29:29;;;;;;;6.13;2.97;;;;;;;18.12;100.00;95952.72;5033296;27;104452;-65
2022/06/19 02:31:58;;;;;;;8.13;3.70;;;;;;;18.03;100.00;95951.84;5034003;28;102129;-65
2022/06/19 02:37:51;;;;;;;4.80;3.00;;;;;;;18.04;100.00;95939.22;5031688;28;106037;-65
2022/06/19 02:40:29;;;;;;;4.73;3.03;;;;;;;18.01;100.00;95935.25;5032533;28;101988;-65
2022/06/19 02:42:56;;;;;;;5.63;2.90;;;;;;;17.96;100.00;95938.06;5033831;28;102534;-65
2022/06/19 02:52:12;;;;;;;6.67;2.90;;;;;;;18.32;100.00;95908.34;5036431;27;101730;-65
2022/06/19 02:55:28;;;;;;;7.10;3.07;;;;;;;18.04;100.00;95906.91;5032328;28;101780;-65
2022/06/19 02:57:55;;;;;;;6.63;3.03;;;;;;;17.78;100.00;95896.00;5033910;27;102476;-65
2022/06/19 03:00:27;;;;;;;6.60;2.80;;;;;;;17.71;100.00;95897.53;5031615;28;103880;-65
2022/06/19 03:02:57;;;;;;;3.30;2.67;;;;;;;17.69;100.00;95902.41;5031686;28;102101;-65
2022/06/19 03:05:26;;;;;;;6.40;2.70;;;;;;;17.72;100.00;95891.84;5065977;27;105277;-65
2022/06/19 03:07:55;;;;;;;7.70;2.97;;;;;;;17.69;100.00;95889.78;5031579;28;105449;-65
2022/06/19 03:10:22;;;;;;;5.30;2.70;;;;;;;17.81;100.00;95892.69;5033356;28;101794;-65
2022/06/19 03:12:50;;;;;;;6.57;2.80;;;;;;;17.62;100.00;95897.50;5034966;28;103580;-65
2022/06/19 03:15:18;;;;;;;5.60;3.10;;;;;;;17.56;100.00;95900.59;5031980;28;102015;-65
2022/06/19 03:17:45;;;;;;;6.90;2.67;;;;;;;17.91;100.00;95886.25;5031862;28;103838;-65
2022/06/19 03:20:16;;;;;;;4.20;2.27;;;;;;;18.10;100.00;95879.56;5030973;28;105451;-65
2022/06/19 03:22:43;;;;;;;6.00;2.97;;;;;;;18.08;100.00;95876.38;5033320;27;101869;-65
2022/06/19 03:28:34;;;;;;;6.23;3.03;;;;;;;17.84;100.00;95869.78;5032669;27;102964;-65
2022/06/19 03:31:01;;;;;;;11.07;3.30;;;;;;;18.02;100.00;95874.13;5031728;28;101910;-65
2022/06/19 03:33:28;;;;;;;5.10;3.00;;;;;;;17.96;100.00;95881.56;5032892;28;102942;-65
2022/06/19 03:35:58;;;;;;;6.97;2.90;;;;;;;17.59;100.00;95895.41;5035267;27;102538;-65
2022/06/19 03:38:25;;;;;;;9.47;3.60;;;;;;;17.59;100.00;95890.03;5033066;28;102529;-65
2022/06/19 03:40:52;;;;;;;5.87;3.10;;;;;;;17.53;100.00;95879.69;5032276;28;103151;-65
2022/06/19 03:43:18;;;;;;;4.33;3.17;;;;;;;17.65;100.00;95886.09;5032929;27;101856;-65
2022/06/19 03:45:48;;;;;;;6.87;3.60;;;;;;;17.24;100.00;95877.41;5032573;28;104042;-65
2022/06/19 03:48:16;;;;;;;11.10;3.40;;;;;;;17.32;100.00;95887.41;5030813;28;104312;-65
2022/06/19 03:50:43;;;;;;;8.60;3.77;;;;;;;17.27;100.00;95886.75;5031192;28;101911;-65
2022/06/19 03:53:10;;;;;;;5.93;3.30;;;;;;;17.32;100.00;95894.66;5032659;27;102302;-65
2022/06/19 03:55:37;;;;;;;8.43;3.93;;;;;;;17.28;100.00;95891.03;5031892;28;102829;-65
2022/06/19 03:58:05;;;;;;;6.70;4.00;;;;;;;17.34;100.00;95892.50;5036076;28;101808;-65
2022/06/19 04:00:32;;;;;;;7.60;4.37;;;;;;;17.51;100.00;95895.34;5032000;27;103085;-65
2022/06/19 04:03:00;;;;;;;8.33;3.80;;;;;;;17.53;100.00;95895.81;5030843;28;101937;-65
2022/06/19 04:05:39;;;;;;;7.60;3.60;;;;;;;17.74;100.00;95892.34;5032152;28;102947;-65
2022/06/19 04:08:07;;;;;;;5.13;3.17;;;;;;;17.94;100.00;95885.66;5032016;27;102566;-65
2022/06/19 04:10:34;;;;;;;7.27;3.60;;;;;;;17.93;100.00;95884.84;5032429;27;101746;-65
2022/06/19 04:13:02;;;;;;;4.77;3.37;;;;;;;18.16;100.00;95882.91;5031075;28;104011;-65
2022/06/19 04:16:00;;;;;;;6.47;3.60;;;;;;;18.06;100.00;95886.69;5030225;28;106590;-65
2022/06/19 04:18:29;;;;;;;5.97;3.27;;;;;;;18.08;100.00;95886.34;5032371;28;101698;-65
2022/06/19 04:20:57;;;;;;;5.77;3.20;;;;;;;18.27;100.00;95886.91;5035119;28;101722;-65
2022/06/19 04:23:24;;;;;;;8.37;3.63;;;;;;;18.18;100.00;95880.69;5032225;28;101820;-65
2022/06/19 04:25:52;;;;;;;6.50;3.20;;;;;;;18.35;100.00;95883.50;5030578;28;105225;-65
2022/06/19 04:28:23;;;;;;;5.17;3.40;;;;;;;18.34;100.00;95889.97;5029996;28;105297;-65
2022/06/19 04:30:51;;;;;;;8.73;3.50;;;;;;;18.35;100.00;95888.88;5032249;27;101697;-65
2022/06/19 04:33:20;;;;;;;9.80;3.43;;;;;;;18.62;100.00;95886.75;5030615;28;105254;-65
2022/06/19 04:36:00;;;;;;;5.20;3.00;;;;;;;18.70;100.00;95887.91;5029969;28;103998;-65
2022/06/19 04:38:28;;;;;;;4.03;2.97;;;;;;;18.94;100.00;95890.94;5030842;28;101802;-65
2022/06/19 04:40:56;;;;;;;8.03;3.37;;;;;;;18.99;100.00;95891.59;5030485;28;105601;-65
2022/06/19 04:43:23;;;;;;;9.07;3.13;;;;;;;19.11;100.00;95890.97;5034529;28;102792;-65
2022/06/19 04:45:50;;;;;;;5.27;3.33;;;;;;;19.24;100.00;95892.78;5030840;27;102309;-65
2022/06/19 04:48:17;;;;;;;5.93;3.10;;;;;;;19.34;100.00;95898.63;5031047;27;104047;-65
2022/06/19 04:50:44;;;;;;;8.13;3.20;;;;;;;19.57;100.00;95893.88;5031452;28;101814;-65
2022/06/19 04:53:13;;;;;;;5.23;2.90;;;;;;;19.59;100.00;95888.94;5031725;28;102831;-65
2022/06/19 04:56:18;;;;;;;7.40;3.50;;;;;;;19.60;100.00;95890.53;5029748;28;105468;-65
2022/06/19 04:58:45;;;;;;;6.63;3.03;;;;;;;19.67;100.00;95891.63;5031645;27;101706;-65
2022/06/19 05:01:19;;;;;;;7.77;2.93;;;;;;;19.98;100.00;95892.22;5029623;28;105150;-66
2022/06/19 05:03:46;;;;;;;7.27;2.90;;;;;;;20.31;100.00;95882.47;5031142;28;102866;-65
2022/06/19 05:06:32;;;;;;;5.70;2.60;;;;;;;20.59;100.00;95890.94;5034863;28;101768;-65
2022/06/19 05:09:01;;;;;;;7.50;3.20;;;;;;;20.66;100.00;95878.47;5030934;27;102716;-65
2022/06/19 05:11:31;;;;;;;5.43;2.57;;;;;;;20.99;100.00;95884.06;5031299;28;101861;-65
2022/06/19 05:13:59;;;;;;;8.20;2.90;;;;;;;21.17;100.00;95874.69;5031003;28;104081;-65
2022/06/19 05:16:50;;;;;;;9.63;3.23;;;;;;;21.11;100.00;95873.31;5029496;28;103871;-65
2022/06/19 05:19:22;;;;;;;5.93;3.00;;;;;;;21.46;100.00;95882.75;5031687;27;101628;-65
2022/06/19 05:21:49;;;;;;;8.17;3.00;;;;;;;21.53;100.00;95874.91;5029626;28;105595;-65
2022/06/19 05:24:18;;;;;;;9.30;3.30;;;;;;;21.59;100.00;95873.56;5029299;28;105667;-65
2022/06/19 05:26:45;;;;;;;13.53;3.73;;;;;;;21.66;100.00;95879.22;5034332;28;101934;-65
2022/06/19 05:29:13;;;;;;;9.73;3.40;;;;;;;21.74;100.00;95873.78;5029119;28;104046;-65
2022/06/19 05:31:40;;;;;;;11.60;3.90;;;;;;;21.87;100.00;95883.53;5031123;28;101868;-65
2022/06/19 05:34:07;;;;;;;9.03;3.57;;;;;;;21.77;100.00;95878.53;5029837;28;105454;-65
2022/06/19 05:36:54;;;;;;;8.30;3.73;;;;;;;21.87;100.00;95882.72;5030359;28;102602;-65
2022/06/19 05:39:23;;;;;;;7.77;3.37;;;;;;;22.02;100.00;95884.81;5031107;27;101740;-65
2022/06/19 05:41:52;;;;;;;11.13;3.73;;;;;;;22.24;100.00;95876.28;5029403;28;104925;-65
2022/06/19 05:44:20;;;;;;;10.97;3.70;;;;;;;22.33;100.00;95880.47;5029899;27;102756;-65
2022/06/19 05:46:49;;;;;;;7.87;3.20;;;;;;;22.47;100.00;95880.19;5030685;28;101874;-65
2022/06/19 05:49:51;;;;;;;10.23;3.30;;;;;;;22.66;100.00;95877.72;5032524;28;105100;-65
2022/06/19 05:52:20;;;;;;;10.40;3.50;;;;;;;22.75;100.00;95879.19;5028913;28;101994;-64
2022/06/19 05:54:59;;;;;;;9.33;3.50;;;;;;;23.03;100.00;95877.34;5029290;28;103972;-66
2022/06/19 05:57:27;;;;;;;8.43;2.80;;;;;;;23.31;100.00;95872.78;5029830;28;102153;-67
2022/06/19 05:59:55;;;;;;;10.13;3.20;;;;;;;23.47;100.00;95876.38;5030118;28;102308;-67
2022/06/19 06:02:23;;;;;;;10.47;3.57;;;;;;;23.71;100.00;95872.78;5028089;28;105076;-67
2022/06/19 06:04:53;;;;;;;10.00;3.33;;;;;;;23.80;100.00;95881.56;5029779;27;103066;-67
2022/06/19 06:07:20;;;;;;;7.50;3.30;;;;;;;24.02;100.00;95873.69;5010377;28;102251;-67
2022/06/19 06:09:47;;;;;;;10.67;3.27;;;;;;;24.19;100.00;95875.31;5010146;28;102352;-66
2022/06/19 06:12:16;;;;;;;9.23;3.57;;;;;;;24.27;100.00;95877.84;5031167;28;104025;-65
2022/06/19 06:14:43;;;;;;;8.30;3.20;;;;;;;24.29;100.00;95880.19;5030049;28;104005;-67
2022/06/19 06:17:11;;;;;;;11.47;3.67;;;;;;;24.47;100.00;95876.03;5028397;28;105750;-68
2022/06/19 06:19:50;;;;;;;10.87;3.23;;;;;;;24.60;100.00;95874.81;5029045;28;102068;-68
2022/06/19 06:22:18;;;;;;;11.70;3.60;;;;;;;24.70;100.00;95875.09;5030390;28;102312;-67
2022/06/19 06:24:46;;;;;;;8.03;3.23;;;;;;;24.85;100.00;95876.97;5029634;28;101711;-68
2022/06/19 06:27:13;;;;;;;6.47;3.00;;;;;;;24.91;98.53;95883.72;5030424;28;101672;-68
2022/06/19 06:29:42;;;;;;;8.43;3.40;;;;;;;25.15;100.00;95888.97;5028877;28;102535;-68
2022/06/19 06:32:08;;;;;;;10.13;3.10;;;;;;;25.32;100.00;95883.16;5029427;27;103164;-68
2022/06/19 06:34:43;;;;;;;9.10;3.30;;;;;;;25.42;99.60;95881.81;5033792;28;102075;-68
2022/06/19 06:37:10;;;;;;;9.67;3.30;;;;;;;25.56;100.00;95884.84;5029876;28;102650;-68
2022/06/19 06:39:37;;;;;;;10.37;3.43;;;;;;;25.58;95.49;95890.69;5028569;28;101968;-68
2022/06/19 06:42:05;;;;;;;6.70;2.90;;;;;;;25.84;95.14;95893.59;5028698;28;105511;-68
2022/06/19 06:45:00;;;;;;;11.10;3.33;;;;;;;25.94;96.98;95879.41;5029278;28;102468;-68
2022/06/19 06:47:27;;;;;;;7.77;3.30;;;;;;;26.06;99.11;95882.78;5028408;28;102002;-68
2022/06/19 06:49:56;;;;;;;11.00;3.83;;;;;;;25.94;90.44;95887.59;5030083;28;102355;-68
2022/06/19 06:52:23;;;;;;;8.53;3.00;;;;;;;26.27;98.37;95890.56;5027757;28;105572;-68
2022/06/19 06:55:09;;;;;;;9.17;3.73;;;;;;;26.31;82.63;95883.25;5030043;28;101832;-68
2022/06/19 06:57:36;;;;;;;8.83;3.57;;;;;;;26.35;83.18;95894.97;5033217;28;102673;-68
2022/06/19 07:00:06;;;;;;;6.57;2.97;;;;;;;26.41;84.18;95898.97;5029600;27;101982;-68
2022/06/19 07:02:34;;;;;;;10.50;3.53;;;;;;;26.62;80.64;95896.66;5028737;28;103955;-68
2022/06/19 07:05:18;;;;;;;9.80;3.27;;;;;;;26.84;81.51;95901.31;5029359;28;102590;-67
2022/06/19 07:07:45;;;;;;;7.80;3.50;;;;;;;26.95;92.29;95896.81;5029547;28;102037;-67
2022/06/19 07:10:13;;;;;;;7.53;3.37;;;;;;;27.24;96.86;95904.34;5030339;27;104903;-68
2022/06/19 07:12:40;;;;;;;8.33;3.27;;;;;;;27.37;85.04;95897.50;5031188;28;105428;-68
2022/06/19 07:15:19;;;;;;;8.97;3.43;;;;;;;27.55;85.79;95898.50;5031986;28;101982;-68
2022/06/19 07:17:47;;;;;;;10.53;3.13;;;;;;;27.68;97.35;95897.16;5033429;28;102401;-67
2022/06/19 07:20:13;;;;;;;7.10;3.30;;;;;;;27.71;92.10;95896.38;5033916;28;101928;-67
2022/06/19 07:22:41;;;;;;;7.73;3.20;;;;;;;27.78;95.95;95907.44;5033143;28;102364;-67
2022/06/19 07:25:22;;;;;;;11.10;3.17;;;;;;;28.09;94.42;95902.38;5031274;28;104107;-67
2022/06/19 07:27:50;;;;;;;6.40;3.03;;;;;;;28.23;88.63;95907.97;5031613;28;101800;-67
2022/06/19 07:30:21;;;;;;;13.33;4.00;;;;;;;28.41;92.08;95897.25;5033153;28;102342;-68
2022/06/19 07:32:49;;;;;;;8.83;3.33;;;;;;;28.28;89.95;95893.97;5032499;27;102659;-68
2022/06/19 07:35:16;;;;;;;9.23;3.30;;;;;;;28.49;90.14;95901.66;5031318;28;101940;-68
2022/06/19 07:37:43;;;;;;;7.40;3.23;;;;;;;28.59;94.20;95904.47;5032912;28;102379;-68
2022/06/19 07:40:13;;;;;;;8.73;3.40;;;;;;;28.44;81.17;95900.03;5035538;28;102101;-68
2022/06/19 07:42:40;;;;;;;7.93;3.60;;;;;;;28.54;84.79;95909.50;5031474;28;105234;-68
2022/06/19 07:45:33;;;;;;;8.63;3.40;;;;;;;28.88;76.11;95906.28;5032292;27;103175;-68
2022/06/19 07:51:04;;;;;;;5.90;2.93;;;;;;;29.06;72.33;95901.00;5032759;27;102805;-68
2022/06/19 07:53:31;;;;;;;10.53;3.93;;;;;;;28.83;69.14;95906.63;5031996;28;102625;-68
2022/06/19 07:56:09;;;;;;;7.83;3.30;;;;;;;28.90;64.01;95905.94;5032709;28;101901;-68
2022/06/19 07:58:37;;;;;;;10.90;3.73;;;;;;;28.93;80.72;95910.66;5031489;28;105511;-68
2022/06/19 08:01:06;;;;;;;8.80;3.10;;;;;;;29.11;70.34;95906.13;5031732;27;102992;-68
2022/06/19 08:03:32;;;;;;;10.60;3.60;;;;;;;29.44;81.09;95903.22;5035738;28;101986;-68
2022/06/19 08:06:25;;;;;;;10.20;3.93;;;;;;;29.66;71.58;95902.19;5031783;28;102901;-68
2022/06/19 08:08:53;;;;;;;9.17;3.57;;;;;;;29.22;64.47;95904.25;5031007;28;101918;-68
2022/06/19 08:11:19;;;;;;;10.70;3.50;;;;;;;28.99;69.72;95914.66;5032384;27;102210;-68
2022/06/19 08:13:47;;;;;;;6.85;3.05;;;;;;;29.37;68.75;95908.66;5032021;27;102535;-68
2022/06/19 08:16:15;;;;;;;7.38;3.20;;;;;;;29.89;66.22;95905.44;5032375;28;101806;-68
2022/06/19 08:18:43;;;;;;;7.88;3.17;;;;;;;29.91;62.66;95903.13;5032449;28;102899;-68
2022/06/19 08:21:11;;;;;;;8.77;3.75;;;;;;;29.93;54.67;95900.75;5031542;27;102513;-68
2022/06/19 08:23:38;;;;;;;9.18;3.40;;;;;;;30.33;55.51;95903.28;5030982;28;101996;-68
2022/06/19 08:26:19;;;;;;;9.70;3.50;;;;;;;30.05;53.72;95903.94;5033508;28;103774;-68
2022/06/19 08:28:49;;;;;;;7.68;3.25;;;;;;;29.92;54.73;95904.69;5030944;28;101767;-68
2022/06/19 08:31:18;;;;;;;10.80;3.55;;;;;;;29.94;51.40;95911.34;5031988;27;102451;-67
2022/06/19 08:33:45;;;;;;;13.27;4.20;;;;;;;30.06;53.51;95907.47;5030150;28;103204;-68
2022/06/19 08:36:13;;;;;;;10.90;3.72;;;;;;;30.28;57.99;95907.19;5030599;28;101738;-68
2022/06/19 08:38:46;;;;;;;9.65;3.80;;;;;;;30.12;55.25;95909.50;5031801;28;103017;-68
2022/06/19 08:41:32;;;;;;;13.07;4.38;;;;;;;30.50;52.84;95908.81;5029949;28;103776;-68
2022/06/19 08:44:29;;;;;;;8.82;3.53;;;;;;;30.86;52.83;95907.72;5032006;28;101720;-68
2022/06/19 08:47:17;;;;;;;8.52;3.63;;;;;;;30.78;54.45;95897.91;5030476;28;105098;-68
2022/06/19 08:50:03;;;;;;;9.40;3.65;;;;;;;30.94;52.90;95900.28;5034640;27;102773;-68
2022/06/19 08:52:41;;;;;;;9.30;3.60;;;;;;;30.71;55.95;95903.38;5032048;27;102320;-68
2022/06/19 08:55:22;;;;;;;9.93;3.97;;;;;;;30.97;55.21;95907.72;5031235;28;102630;-68
2022/06/19 08:58:02;;;;;;;9.55;3.67;;;;;;;31.23;57.36;95912.84;5031637;28;101723;-68
2022/06/19 09:00:41;;;;;;;8.68;3.55;;;;;;;31.20;53.47;95902.63;5031756;28;102366;-68
2022/06/19 09:03:15;;;;;;;10.10;3.85;;;;;;;30.93;54.52;95904.19;5030394;28;102658;-68
2022/06/19 09:05:53;;;;;;;9.48;3.75;;;;;;;31.42;58.86;95909.66;5030294;28;101957;-68
2022/06/19 09:08:48;;;;;;;10.35;3.58;;;;;;;31.22;54.93;95914.03;5031628;28;102355;-67
2022/06/19 09:11:33;;;;;;;7.45;3.47;;;;;;;31.64;65.58;95911.19;5031047;27;103019;-68
2022/06/19 09:14:22;;;;;;;9.32;4.38;;;;;;;31.32;57.87;95903.00;5033643;28;102312;-68
2022/06/19 09:16:59;;;;;;;10.63;4.57;;;;;;;31.68;56.52;95907.28;5030629;27;104166;-68
2022/06/19 09:19:51;;;;;;;10.52;3.72;;;;;;;31.96;54.59;95911.91;5029922;28;101816;-68
2022/06/19 09:22:53;;;;;;;8.00;3.35;;;;;;;32.41;56.17;95910.97;5029513;28;105589;-68
2022/06/19 09:25:38;;;;;;;12.90;4.07;;;;;;;32.75;50.96;95909.94;5029361;28;104360;-68
2022/06/19 09:28:11;;;;;;;8.07;3.67;;;;;;;32.70;53.45;95909.59;5031212;28;101678;-68
2022/06/19 09:30:45;;;;;;;12.50;3.63;;;;;;;32.46;47.52;95908.56;5031344;28;102397;-68
2022/06/19 09:33:19;;;;;;;9.90;3.67;;;;;;;32.36;49.24;95905.88;5030063;27;102970;-68
2022/06/19 09:36:33;;;;;;;10.32;3.75;;;;;;;32.89;49.08;95903.59;5034651;28;101662;-68
2022/06/19 09:39:07;;;;;;;8.60;3.80;;;;;;;32.86;43.30;95894.16;5030167;28;102760;-68
2022/06/19 09:41:39;;;;;;;11.43;4.32;;;;;;;33.32;44.29;95905.63;5029871;28;101824;-68
2022/06/19 09:44:13;;;;;;;11.20;4.07;;;;;;;33.11;41.00;95902.22;5031103;27;102265;-68
2022/06/19 09:46:51;;;;;;;10.55;3.85;;;;;;;32.95;41.42;95899.19;5030125;28;104169;-68
2022/06/19 09:49:40;;;;;;;6.95;3.35;;;;;;;33.60;41.20;95893.50;5029576;28;101765;-68
2022/06/19 09:52:14;;;;;;;9.80;3.65;;;;;;;33.86;39.92;95895.63;5029438;28;104289;-68
2022/06/19 09:54:58;;;;;;;15.43;3.85;;;;;;;33.90;37.78;95893.63;5030325;28;102605;-68
2022/06/19 09:57:31;;;;;;;14.02;4.07;;;;;;;34.01;38.50;95884.00;5031124;28;101841;-68
2022/06/19 10:00:02;;;;;;;9.60;3.80;;;;;;;34.16;38.67;95879.09;5032332;28;105222;-68
2022/06/19 10:02:46;;;;;;;9.60;3.47;;;;;;;34.42;37.87;95870.09;5029765;27;101926;-68
2022/06/19 10:05:22;;;;;;;8.77;3.58;;;;;;;34.22;36.92;95874.69;5030815;28;101684;-68
2022/06/19 10:07:55;;;;;;;12.57;3.80;;;;;;;34.55;37.82;95871.09;5030044;28;102539;-68
2022/06/19 10:10:36;;;;;;;10.10;4.07;;;;;;;34.58;35.73;95867.50;5030870;27;101758;-68
2022/06/19 10:13:09;;;;;;;8.98;3.50;;;;;;;34.73;33.34;95861.34;5030888;28;102343;-68
2022/06/19 10:15:45;;;;;;;10.50;3.38;;;;;;;35.00;35.50;95856.59;5028574;28;105928;-68
2022/06/19 10:18:16;;;;;;;10.68;3.67;;;;;;;35.05;34.51;95855.31;5030738;28;101758;-68
2022/06/19 10:20:54;;;;;;;9.65;3.72;;;;;;;35.26;32.22;95860.53;5029049;28;103593;-68
2022/06/19 10:23:30;;;;;;;14.13;3.70;;;;;;;35.16;32.49;95855.94;5033409;28;102571;-68
2022/06/19 10:26:27;;;;;;;8.98;3.88;;;;;;;35.84;32.34;95866.16;5029200;28;105076;-68
2022/06/19 10:29:21;;;;;;;9.95;3.80;;;;;;;35.22;32.95;95859.78;5028393;28;104241;-68
2022/06/19 10:32:02;;;;;;;10.27;3.97;;;;;;;35.75;31.56;95862.41;5024292;27;102036;-68
2022/06/19 10:34:45;;;;;;;12.10;4.10;;;;;;;35.36;32.21;95862.31;5030510;27;102327;-68
2022/06/19 10:37:23;;;;;;;11.38;3.65;;;;;;;35.62;33.14;95858.66;5028149;28;105569;-68
2022/06/19 10:40:03;;;;;;;8.65;3.92;;;;;;;35.88;37.30;95858.56;5030352;28;101989;-68
2022/06/19 10:42:46;;;;;;;9.00;3.80;;;;;;;36.50;33.70;95860.44;5030209;27;101730;-68
2022/06/19 10:45:31;;;;;;;9.10;3.60;;;;;;;36.48;31.05;95860.06;5029909;27;106084;-68
2022/06/19 10:48:27;;;;;;;6.70;3.20;;;;;;;36.76;34.84;95853.91;5035524;28;101983;-68
2022/06/19 10:51:06;;;;;;;12.70;3.88;;;;;;;36.84;33.85;95847.00;5032862;28;101936;-68
2022/06/19 10:53:50;;;;;;;5.43;3.47;;;;;;;36.69;33.77;95843.00;5032316;28;101919;-68
2022/06/19 10:56:31;;;;;;;10.70;3.97;;;;;;;36.24;32.31;95836.50;5033741;28;102346;-68
2022/06/19 10:59:00;;;;;;;10.10;4.35;;;;;;;35.54;32.81;95848.94;5032680;28;103102;-68
2022/06/19 11:04:20;;;;;;;11.23;4.03;;;;;;;35.78;33.11;95836.63;5033498;27;102949;-68
2022/06/19 11:06:53;;;;;;;11.93;4.03;;;;;;;34.95;33.76;95828.63;5032930;27;102544;-68
2022/06/19 11:09:24;;;;;;;10.85;3.60;;;;;;;36.35;34.57;95831.50;5032052;28;101857;-68
2022/06/19 11:11:56;;;;;;;10.77;4.03;;;;;;;37.10;33.09;95821.78;5036457;27;102328;-68
2022/06/19 11:14:33;;;;;;;12.15;3.85;;;;;;;37.13;33.93;95823.72;5033209;28;101764;-68
2022/06/19 11:17:03;;;;;;;9.18;3.65;;;;;;;37.58;33.12;95824.50;5031813;28;106613;-68
2022/06/19 11:23:00;;;;;;;11.85;4.20;;;;;;;37.77;31.59;95820.03;5033133;27;101886;-68
2022/06/19 11:25:35;;;;;;;9.05;3.78;;;;;;;38.19;31.62;95821.59;5033285;28;102166;-68
2022/06/19 11:28:08;;;;;;;10.70;3.78;;;;;;;38.29;28.99;95812.13;5032647;27;102576;-68
2022/06/19 11:30:40;;;;;;;12.88;4.03;;;;;;;38.18;29.72;95808.91;5033073;28;101660;-68
2022/06/19 11:33:12;;;;;;;14.70;3.97;;;;;;;37.93;32.39;95804.06;5031738;28;105197;-68
2022/06/19 11:35:42;;;;;;;12.85;3.88;;;;;;;38.32;29.97;95795.38;5034521;28;105778;-68
2022/06/19 11:38:11;;;;;;;9.55;3.70;;;;;;;38.65;30.57;95791.19;5031588;28;105653;-66
2022/06/19 11:40:42;;;;;;;12.13;3.85;;;;;;;38.42;30.68;95793.50;5032298;28;102581;-66
2022/06/19 11:43:27;;;;;;;11.27;3.70;;;;;;;37.79;31.38;95795.38;5032931;27;101659;-66
2022/06/19 11:46:07;;;;;;;10.25;3.60;;;;;;;38.25;30.40;95792.03;5032880;27;102253;-66
2022/06/19 11:48:46;;;;;;;11.35;4.05;;;;;;;38.90;29.60;95787.63;5032095;28;102674;-67
2022/06/19 11:51:19;;;;;;;8.27;3.63;;;;;;;39.17;29.71;95794.22;5032705;28;101705;-67
2022/06/19 11:53:53;;;;;;;11.13;3.83;;;;;;;38.71;28.27;95794.16;5031483;28;103771;-63
2022/06/19 11:59:45;;;;;;;12.60;3.95;;;;;;;39.11;28.66;95789.69;5032743;27;102814;-67
2022/06/19 12:02:27;;;;;;;10.60;3.97;;;;;;;39.09;28.12;95786.56;5031415;27;102861;-66
2022/06/19 12:05:23;;;;;;;12.95;3.88;;;;;;;38.23;26.41;95786.13;5031106;28;101766;-65
2022/06/19 12:07:51;;;;;;;10.27;3.90;;;;;;;38.93;28.36;95781.16;5031085;28;103620;-65
2022/06/19 12:10:24;;;;;;;14.55;4.18;;;;;;;38.97;24.85;95773.47;5031850;27;102900;-65
2022/06/19 12:12:56;;;;;;;14.13;4.03;;;;;;;38.78;25.07;95778.03;5032481;28;101947;-65
2022/06/19 12:19:22;;;;;;;10.75;3.97;;;;;;;38.07;27.88;95777.91;5031437;27;104448;-65
2022/06/19 12:21:55;;;;;;;13.13;3.80;;;;;;;38.51;29.73;95780.50;5034215;28;101898;-65
2022/06/19 12:24:28;;;;;;;8.43;3.60;;;;;;;38.62;32.99;95757.94;5031772;27;102559;-65